sensor_id;sensor_type;location;lat;lon;timestamp;P1;durP1;ratioP1;P2;durP2;ratioP2
22768;SDS011;13001;51.968;5.918;2022-07-05T05:30:12;411.47;;;384.40;;
22768;SDS011;13001;51.968;5.918;2022-07-05T05:32:39;636.08;;;590.77;;
22768;SDS011;13001;51.968;5.918;2022-07-05T05:35:07;553.70;;;517.80;;
22768;SDS011;13001;51.968;5.918;2022-07-05T05:37:50;533.20;;;498.15;;
22768;SDS011;13001;51.968;5.918;2022-07-05T05:40:18;558.62;;;521.72;;
22768;SDS011;13001;51.968;5.918;2022-07-05T05:42:46;615.70;;;573.23;;
22768;SDS011;13001;51.968;5.918;2022-07-05T05:45:13;714.25;;;657.90;;
22768;SDS011;13001;51.968;5.918;2022-07-05T05:47:48;772.45;;;711.95;;
22768;SDS011;13001;51.968;5.918;2022-07-05T05:50:25;781.60;;;720.10;;
22768;SDS011;13001;51.968;5.918;2022-07-05T05:52:53;866.68;;;800.98;;
22768;SDS011;13001;51.968;5.918;2022-07-05T05:55:21;857.08;;;792.63;;
22768;SDS011;13001;51.968;5.918;2022-07-05T05:57:49;753.73;;;694.28;;
22768;SDS011;13001;51.968;5.918;2022-07-05T06:00:16;748.23;;;690.90;;
22768;SDS011;13001;51.968;5.918;2022-07-05T06:02:44;823.83;;;763.03;;
22768;SDS011;13001;51.968;5.918;2022-07-05T06:05:12;748.60;;;693.50;;
22768;SDS011;13001;51.968;5.918;2022-07-05T06:07:43;689.00;;;639.97;;
22768;SDS011;13001;51.968;5.918;2022-07-05T06:10:13;656.58;;;610.48;;
22768;SDS011;13001;51.968;5.918;2022-07-05T06:12:39;672.87;;;624.62;;
22768;SDS011;13001;51.968;5.918;2022-07-05T06:15:07;779.33;;;718.05;;
22768;SDS011;13001;51.968;5.918;2022-07-05T06:17:37;870.67;;;802.90;;
22768;SDS011;13001;51.968;5.918;2022-07-05T06:20:06;873.83;;;807.77;;
22768;SDS011;13001;51.968;5.918;2022-07-05T06:22:33;860.00;;;795.23;;
22768;SDS011;13001;51.968;5.918;2022-07-05T06:25:00;802.67;;;743.70;;
22768;SDS011;13001;51.968;5.918;2022-07-05T06:27:28;776.20;;;720.12;;
22768;SDS011;13001;51.968;5.918;2022-07-05T06:29:55;766.25;;;711.28;;
22768;SDS011;13001;51.968;5.918;2022-07-05T06:32:23;772.60;;;716.45;;
22768;SDS011;13001;51.968;5.918;2022-07-05T06:34:51;625.30;;;583.75;;
22768;SDS011;13001;51.968;5.918;2022-07-05T06:37:18;556.53;;;519.83;;
22768;SDS011;13001;51.968;5.918;2022-07-05T06:39:45;496.20;;;464.10;;
22768;SDS011;13001;51.968;5.918;2022-07-05T06:42:12;486.58;;;454.95;;
22768;SDS011;13001;51.968;5.918;2022-07-05T06:44:40;470.65;;;440.52;;
22768;SDS011;13001;51.968;5.918;2022-07-05T06:47:07;460.07;;;430.20;;
22768;SDS011;13001;51.968;5.918;2022-07-05T06:49:35;485.90;;;454.02;;
22768;SDS011;13001;51.968;5.918;2022-07-05T06:52:02;574.27;;;537.72;;
22768;SDS011;13001;51.968;5.918;2022-07-05T06:54:29;580.58;;;543.85;;
22768;SDS011;13001;51.968;5.918;2022-07-05T06:56:57;552.03;;;516.33;;
22768;SDS011;13001;51.968;5.918;2022-07-05T06:59:24;446.42;;;419.70;;
22768;SDS011;13001;51.968;5.918;2022-07-05T07:01:51;228.55;;;215.52;;
22768;SDS011;13001;51.968;5.918;2022-07-05T07:04:18;205.47;;;193.27;;
22768;SDS011;13001;51.968;5.918;2022-07-05T07:06:46;157.85;;;148.70;;
22768;SDS011;13001;51.968;5.918;2022-07-05T07:09:13;141.85;;;133.45;;
22768;SDS011;13001;51.968;5.918;2022-07-05T07:11:48;103.60;;;97.35;;
22768;SDS011;13001;51.968;5.918;2022-07-05T07:14:16;31.73;;;29.85;;
22768;SDS011;13001;51.968;5.918;2022-07-05T07:16:43;37.10;;;34.95;;
22768;SDS011;13001;51.968;5.918;2022-07-05T07:19:11;53.17;;;50.20;;
22768;SDS011;13001;51.968;5.918;2022-07-05T07:21:39;70.72;;;66.67;;
22768;SDS011;13001;51.968;5.918;2022-07-05T07:24:07;70.37;;;66.45;;
22768;SDS011;13001;51.968;5.918;2022-07-05T07:26:34;96.35;;;90.97;;
22768;SDS011;13001;51.968;5.918;2022-07-05T07:29:20;132.40;;;124.67;;
22768;SDS011;13001;51.968;5.918;2022-07-05T07:31:47;131.93;;;124.10;;
22768;SDS011;13001;51.968;5.918;2022-07-05T07:34:15;98.30;;;92.42;;
22768;SDS011;13001;51.968;5.918;2022-07-05T07:36:42;94.10;;;88.47;;
22768;SDS011;13001;51.968;5.918;2022-07-05T07:39:09;108.40;;;102.40;;
22768;SDS011;13001;51.968;5.918;2022-07-05T07:41:36;115.32;;;108.70;;
22768;SDS011;13001;51.968;5.918;2022-07-05T07:44:04;125.27;;;117.97;;
22768;SDS011;13001;51.968;5.918;2022-07-05T07:46:31;137.25;;;129.45;;
22768;SDS011;13001;51.968;5.918;2022-07-05T07:48:58;135.45;;;127.75;;
22768;SDS011;13001;51.968;5.918;2022-07-05T07:51:25;142.70;;;134.40;;
22768;SDS011;13001;51.968;5.918;2022-07-05T07:53:53;135.10;;;127.50;;
22768;SDS011;13001;51.968;5.918;2022-07-05T07:56:21;169.05;;;159.27;;
22768;SDS011;13001;51.968;5.918;2022-07-05T07:58:48;114.10;;;107.43;;
22768;SDS011;13001;51.968;5.918;2022-07-05T08:01:16;69.75;;;65.42;;
22768;SDS011;13001;51.968;5.918;2022-07-05T08:03:44;62.17;;;58.33;;
22768;SDS011;13001;51.968;5.918;2022-07-05T08:06:12;85.83;;;80.72;;
22768;SDS011;13001;51.968;5.918;2022-07-05T08:08:41;136.63;;;128.53;;
22768;SDS011;13001;51.968;5.918;2022-07-05T08:11:11;211.60;;;199.30;;
22768;SDS011;13001;51.968;5.918;2022-07-05T08:13:39;308.30;;;290.80;;
22768;SDS011;13001;51.968;5.918;2022-07-05T08:16:07;319.27;;;300.87;;
22768;SDS011;13001;51.968;5.918;2022-07-05T08:18:35;318.20;;;299.67;;
22768;SDS011;13001;51.968;5.918;2022-07-05T08:21:20;292.82;;;276.07;;
22768;SDS011;13001;51.968;5.918;2022-07-05T08:24:14;327.15;;;308.60;;
22768;SDS011;13001;51.968;5.918;2022-07-05T08:26:38;338.30;;;319.30;;
22768;SDS011;13001;51.968;5.918;2022-07-05T08:29:09;345.27;;;325.77;;
22768;SDS011;13001;51.968;5.918;2022-07-05T08:31:38;381.35;;;359.55;;
22768;SDS011;13001;51.968;5.918;2022-07-05T08:34:06;442.68;;;416.57;;
22768;SDS011;13001;51.968;5.918;2022-07-05T08:36:34;482.75;;;453.95;;
22768;SDS011;13001;51.968;5.918;2022-07-05T08:39:02;444.55;;;418.35;;
22768;SDS011;13001;51.968;5.918;2022-07-05T08:41:30;418.03;;;393.80;;
22768;SDS011;13001;51.968;5.918;2022-07-05T08:44:00;365.65;;;344.48;;
22768;SDS011;13001;51.968;5.918;2022-07-05T08:46:34;415.70;;;391.30;;
22768;SDS011;13001;51.968;5.918;2022-07-05T08:49:01;522.42;;;490.70;;
22768;SDS011;13001;51.968;5.918;2022-07-05T08:51:32;568.95;;;534.25;;
22768;SDS011;13001;51.968;5.918;2022-07-05T08:53:59;613.93;;;575.03;;
22768;SDS011;13001;51.968;5.918;2022-07-05T08:56:27;589.73;;;551.40;;
22768;SDS011;13001;51.968;5.918;2022-07-05T08:58:54;510.97;;;478.07;;
22768;SDS011;13001;51.968;5.918;2022-07-05T09:01:21;556.37;;;521.87;;
22768;SDS011;13001;51.968;5.918;2022-07-05T09:03:50;549.30;;;515.23;;
22768;SDS011;13001;51.968;5.918;2022-07-05T09:06:21;584.05;;;548.17;;
22768;SDS011;13001;51.968;5.918;2022-07-05T09:08:53;531.08;;;498.58;;
22768;SDS011;13001;51.968;5.918;2022-07-05T09:11:21;408.92;;;385.75;;
22768;SDS011;13001;51.968;5.918;2022-07-05T09:13:48;345.60;;;326.32;;
22768;SDS011;13001;51.968;5.918;2022-07-05T09:16:16;332.37;;;313.75;;
22768;SDS011;13001;51.968;5.918;2022-07-05T09:18:48;325.02;;;306.73;;
22768;SDS011;13001;51.968;5.918;2022-07-05T09:21:16;296.20;;;280.02;;
22768;SDS011;13001;51.968;5.918;2022-07-05T09:23:44;325.85;;;307.65;;
22768;SDS011;13001;51.968;5.918;2022-07-05T09:26:11;306.68;;;289.80;;
22768;SDS011;13001;51.968;5.918;2022-07-05T09:28:50;307.48;;;290.73;;
22768;SDS011;13001;51.968;5.918;2022-07-05T09:31:07;293.33;;;277.07;;
22768;SDS011;13001;51.968;5.918;2022-07-05T09:33:36;304.68;;;287.75;;
22768;SDS011;13001;51.968;5.918;2022-07-05T09:36:05;313.65;;;296.25;;
22768;SDS011;13001;51.968;5.918;2022-07-05T09:38:32;341.20;;;322.05;;
22768;SDS011;13001;51.968;5.918;2022-07-05T09:41:00;346.62;;;326.92;;
22768;SDS011;13001;51.968;5.918;2022-07-05T09:43:28;360.82;;;340.35;;
22768;SDS011;13001;51.968;5.918;2022-07-05T09:45:57;363.65;;;343.33;;
22768;SDS011;13001;51.968;5.918;2022-07-05T09:48:25;420.65;;;396.40;;
22768;SDS011;13001;51.968;5.918;2022-07-05T09:50:52;460.80;;;433.15;;
22768;SDS011;13001;51.968;5.918;2022-07-05T09:53:21;529.38;;;496.93;;
22768;SDS011;13001;51.968;5.918;2022-07-05T09:56:01;572.15;;;536.28;;
22768;SDS011;13001;51.968;5.918;2022-07-05T09:58:28;533.48;;;498.43;;
22768;SDS011;13001;51.968;5.918;2022-07-05T10:00:57;386.80;;;361.37;;
22768;SDS011;13001;51.968;5.918;2022-07-05T10:03:24;296.25;;;278.65;;
22768;SDS011;13001;51.968;5.918;2022-07-05T10:05:51;350.75;;;330.15;;
22768;SDS011;13001;51.968;5.918;2022-07-05T10:08:19;450.40;;;422.77;;
22768;SDS011;13001;51.968;5.918;2022-07-05T10:10:47;523.52;;;490.08;;
22768;SDS011;13001;51.968;5.918;2022-07-05T10:13:16;579.77;;;542.73;;
22768;SDS011;13001;51.968;5.918;2022-07-05T10:15:43;569.65;;;533.45;;
22768;SDS011;13001;51.968;5.918;2022-07-05T10:18:11;524.73;;;492.37;;
22768;SDS011;13001;51.968;5.918;2022-07-05T10:20:40;497.07;;;465.83;;
22768;SDS011;13001;51.968;5.918;2022-07-05T10:23:12;471.50;;;441.40;;
22768;SDS011;13001;51.968;5.918;2022-07-05T10:25:40;495.23;;;462.40;;
22768;SDS011;13001;51.968;5.918;2022-07-05T10:28:08;482.20;;;449.90;;
22768;SDS011;13001;51.968;5.918;2022-07-05T10:30:37;501.63;;;468.57;;
22768;SDS011;13001;51.968;5.918;2022-07-05T10:33:05;491.43;;;459.30;;
22768;SDS011;13001;51.968;5.918;2022-07-05T10:35:33;474.55;;;442.83;;
22768;SDS011;13001;51.968;5.918;2022-07-05T10:38:01;504.27;;;472.50;;
22768;SDS011;13001;51.968;5.918;2022-07-05T10:40:31;516.40;;;483.62;;
22768;SDS011;13001;51.968;5.918;2022-07-05T10:42:59;433.30;;;406.97;;
22768;SDS011;13001;51.968;5.918;2022-07-05T10:48:17;491.80;;;462.00;;
22768;SDS011;13001;51.968;5.918;2022-07-05T10:50:38;521.22;;;489.97;;
22768;SDS011;13001;51.968;5.918;2022-07-05T10:53:01;489.97;;;460.60;;
22768;SDS011;13001;51.968;5.918;2022-07-05T10:55:28;495.15;;;465.08;;
22768;SDS011;13001;51.968;5.918;2022-07-05T11:00:41;487.40;;;458.12;;
22768;SDS011;13001;51.968;5.918;2022-07-05T11:05:54;507.87;;;476.97;;
22768;SDS011;13001;51.968;5.918;2022-07-05T11:08:22;443.85;;;417.15;;
22768;SDS011;13001;51.968;5.918;2022-07-05T11:13:42;468.85;;;440.47;;
22768;SDS011;13001;51.968;5.918;2022-07-05T11:16:48;488.30;;;458.20;;
22768;SDS011;13001;51.968;5.918;2022-07-05T11:18:37;473.65;;;444.32;;
22768;SDS011;13001;51.968;5.918;2022-07-05T11:21:18;488.35;;;458.72;;
22768;SDS011;13001;51.968;5.918;2022-07-05T11:23:45;509.30;;;478.58;;
22768;SDS011;13001;51.968;5.918;2022-07-05T11:26:13;527.15;;;494.15;;
22768;SDS011;13001;51.968;5.918;2022-07-05T11:28:42;458.85;;;429.40;;
22768;SDS011;13001;51.968;5.918;2022-07-05T11:31:10;485.63;;;455.57;;
22768;SDS011;13001;51.968;5.918;2022-07-05T11:33:38;443.07;;;414.55;;
22768;SDS011;13001;51.968;5.918;2022-07-05T11:36:06;458.85;;;429.72;;
22768;SDS011;13001;51.968;5.918;2022-07-05T11:38:35;489.55;;;458.40;;
22768;SDS011;13001;51.968;5.918;2022-07-05T11:41:14;433.33;;;407.37;;
22768;SDS011;13001;51.968;5.918;2022-07-05T11:43:39;472.67;;;443.75;;
22768;SDS011;13001;51.968;5.918;2022-07-05T11:46:07;493.45;;;462.82;;
22768;SDS011;13001;51.968;5.918;2022-07-05T11:48:34;475.07;;;446.53;;
22768;SDS011;13001;51.968;5.918;2022-07-05T11:51:12;455.87;;;427.88;;
22768;SDS011;13001;51.968;5.918;2022-07-05T11:53:39;459.93;;;431.30;;
22768;SDS011;13001;51.968;5.918;2022-07-05T11:56:07;526.22;;;492.80;;
22768;SDS011;13001;51.968;5.918;2022-07-05T11:58:36;522.30;;;489.23;;
22768;SDS011;13001;51.968;5.918;2022-07-05T12:01:03;505.45;;;474.08;;
22768;SDS011;13001;51.968;5.918;2022-07-05T12:03:32;557.17;;;521.77;;
22768;SDS011;13001;51.968;5.918;2022-07-05T12:06:09;558.25;;;523.02;;
22768;SDS011;13001;51.968;5.918;2022-07-05T12:08:28;570.23;;;533.95;;
22768;SDS011;13001;51.968;5.918;2022-07-05T12:10:57;555.43;;;519.87;;
22768;SDS011;13001;51.968;5.918;2022-07-05T12:13:48;539.13;;;505.57;;
22768;SDS011;13001;51.968;5.918;2022-07-05T12:16:12;508.27;;;476.80;;
22768;SDS011;13001;51.968;5.918;2022-07-05T12:18:54;497.65;;;466.88;;
22768;SDS011;13001;51.968;5.918;2022-07-05T12:21:17;488.98;;;458.80;;
22768;SDS011;13001;51.968;5.918;2022-07-05T12:23:48;458.95;;;430.63;;
22768;SDS011;13001;51.968;5.918;2022-07-05T12:26:16;438.40;;;411.97;;
22768;SDS011;13001;51.968;5.918;2022-07-05T12:28:44;412.02;;;386.18;;
22768;SDS011;13001;51.968;5.918;2022-07-05T12:31:21;395.37;;;370.65;;
22768;SDS011;13001;51.968;5.918;2022-07-05T12:33:49;439.95;;;411.20;;
22768;SDS011;13001;51.968;5.918;2022-07-05T12:36:20;453.10;;;425.22;;
22768;SDS011;13001;51.968;5.918;2022-07-05T12:38:49;450.95;;;424.18;;
22768;SDS011;13001;51.968;5.918;2022-07-05T12:41:22;415.10;;;390.98;;
22768;SDS011;13001;51.968;5.918;2022-07-05T12:43:53;418.17;;;393.27;;
22768;SDS011;13001;51.968;5.918;2022-07-05T12:46:34;439.43;;;413.48;;
22768;SDS011;13001;51.968;5.918;2022-07-05T12:48:51;432.57;;;406.87;;
22768;SDS011;13001;51.968;5.918;2022-07-05T12:51:33;416.80;;;391.32;;
22768;SDS011;13001;51.968;5.918;2022-07-05T12:54:00;422.17;;;395.65;;
22768;SDS011;13001;51.968;5.918;2022-07-05T12:56:47;452.55;;;424.45;;
22768;SDS011;13001;51.968;5.918;2022-07-05T12:59:32;457.62;;;430.03;;
22768;SDS011;13001;51.968;5.918;2022-07-05T13:02:00;446.15;;;419.20;;
22768;SDS011;13001;51.968;5.918;2022-07-05T13:04:28;457.47;;;429.00;;
22768;SDS011;13001;51.968;5.918;2022-07-05T13:06:57;435.13;;;408.00;;
22768;SDS011;13001;51.968;5.918;2022-07-05T13:12:05;398.98;;;374.12;;
22768;SDS011;13001;51.968;5.918;2022-07-05T13:14:34;390.00;;;365.93;;
22768;SDS011;13001;51.968;5.918;2022-07-05T13:17:02;402.50;;;378.07;;
22768;SDS011;13001;51.968;5.918;2022-07-05T13:19:32;374.40;;;351.37;;
22768;SDS011;13001;51.968;5.918;2022-07-05T13:21:58;397.30;;;372.65;;
22768;SDS011;13001;51.968;5.918;2022-07-05T13:24:26;393.93;;;369.30;;
22768;SDS011;13001;51.968;5.918;2022-07-05T13:26:53;399.10;;;374.10;;
22768;SDS011;13001;51.968;5.918;2022-07-05T13:29:21;390.48;;;366.02;;
22768;SDS011;13001;51.968;5.918;2022-07-05T13:31:49;380.30;;;357.23;;
22768;SDS011;13001;51.968;5.918;2022-07-05T13:34:16;406.15;;;380.98;;
22768;SDS011;13001;51.968;5.918;2022-07-05T13:36:44;400.45;;;375.68;;
22768;SDS011;13001;51.968;5.918;2022-07-05T13:39:11;420.20;;;393.50;;
22768;SDS011;13001;51.968;5.918;2022-07-05T13:41:39;418.87;;;392.35;;
22768;SDS011;13001;51.968;5.918;2022-07-05T13:44:06;413.15;;;387.55;;
22768;SDS011;13001;51.968;5.918;2022-07-05T13:46:33;414.05;;;387.88;;
22768;SDS011;13001;51.968;5.918;2022-07-05T13:49:00;408.07;;;382.90;;
22768;SDS011;13001;51.968;5.918;2022-07-05T13:51:28;403.17;;;378.00;;
22768;SDS011;13001;51.968;5.918;2022-07-05T13:53:55;402.10;;;376.85;;
22768;SDS011;13001;51.968;5.918;2022-07-05T13:56:22;398.60;;;373.82;;
22768;SDS011;13001;51.968;5.918;2022-07-05T13:58:50;398.95;;;373.90;;
22768;SDS011;13001;51.968;5.918;2022-07-05T14:01:17;398.75;;;373.82;;
22768;SDS011;13001;51.968;5.918;2022-07-05T14:03:46;400.42;;;375.85;;
22768;SDS011;13001;51.968;5.918;2022-07-05T14:06:14;399.65;;;374.60;;
22768;SDS011;13001;51.968;5.918;2022-07-05T14:08:41;396.25;;;371.43;;
22768;SDS011;13001;51.968;5.918;2022-07-05T14:11:08;402.80;;;377.73;;
22768;SDS011;13001;51.968;5.918;2022-07-05T14:13:38;394.70;;;369.93;;
22768;SDS011;13001;51.968;5.918;2022-07-05T14:16:06;394.57;;;370.55;;
22768;SDS011;13001;51.968;5.918;2022-07-05T14:18:34;384.87;;;361.25;;
22768;SDS011;13001;51.968;5.918;2022-07-05T14:21:01;394.67;;;370.70;;
22768;SDS011;13001;51.968;5.918;2022-07-05T14:23:28;407.08;;;382.73;;
22768;SDS011;13001;51.968;5.918;2022-07-05T14:25:58;404.15;;;379.45;;
22768;SDS011;13001;51.968;5.918;2022-07-05T14:28:28;399.02;;;374.60;;
22768;SDS011;13001;51.968;5.918;2022-07-05T14:30:55;391.93;;;368.00;;
22768;SDS011;13001;51.968;5.918;2022-07-05T14:33:22;378.23;;;355.05;;
22768;SDS011;13001;51.968;5.918;2022-07-05T14:35:50;351.67;;;330.83;;
22768;SDS011;13001;51.968;5.918;2022-07-05T14:38:20;378.62;;;355.65;;
22768;SDS011;13001;51.968;5.918;2022-07-05T14:40:47;362.65;;;340.80;;
22768;SDS011;13001;51.968;5.918;2022-07-05T14:43:14;362.85;;;341.00;;
22768;SDS011;13001;51.968;5.918;2022-07-05T14:45:41;381.77;;;358.70;;
22768;SDS011;13001;51.968;5.918;2022-07-05T14:48:08;364.42;;;342.48;;
22768;SDS011;13001;51.968;5.918;2022-07-05T14:50:36;378.88;;;355.73;;
22768;SDS011;13001;51.968;5.918;2022-07-05T14:53:03;377.73;;;354.80;;
22768;SDS011;13001;51.968;5.918;2022-07-05T14:55:32;397.27;;;372.82;;
22768;SDS011;13001;51.968;5.918;2022-07-05T14:57:59;407.15;;;382.40;;
22768;SDS011;13001;51.968;5.918;2022-07-05T15:00:26;403.15;;;378.73;;
22768;SDS011;13001;51.968;5.918;2022-07-05T15:02:54;393.48;;;369.87;;
22768;SDS011;13001;51.968;5.918;2022-07-05T15:05:21;386.62;;;363.43;;
22768;SDS011;13001;51.968;5.918;2022-07-05T15:07:48;391.55;;;368.15;;
22768;SDS011;13001;51.968;5.918;2022-07-05T15:10:16;385.73;;;363.00;;
22768;SDS011;13001;51.968;5.918;2022-07-05T15:12:43;389.23;;;366.08;;
22768;SDS011;13001;51.968;5.918;2022-07-05T15:15:11;402.35;;;377.82;;
22768;SDS011;13001;51.968;5.918;2022-07-05T15:17:38;417.70;;;392.55;;
22768;SDS011;13001;51.968;5.918;2022-07-05T15:20:06;395.07;;;371.55;;
22768;SDS011;13001;51.968;5.918;2022-07-05T15:22:35;401.07;;;376.60;;
22768;SDS011;13001;51.968;5.918;2022-07-05T15:25:02;418.43;;;392.97;;
22768;SDS011;13001;51.968;5.918;2022-07-05T15:27:29;388.80;;;365.40;;
22768;SDS011;13001;51.968;5.918;2022-07-05T15:29:58;395.73;;;371.98;;
22768;SDS011;13001;51.968;5.918;2022-07-05T15:32:25;396.18;;;372.42;;
22768;SDS011;13001;51.968;5.918;2022-07-05T15:34:53;387.38;;;364.17;;
22768;SDS011;13001;51.968;5.918;2022-07-05T15:37:21;390.62;;;367.02;;
22768;SDS011;13001;51.968;5.918;2022-07-05T15:39:48;384.37;;;361.27;;
22768;SDS011;13001;51.968;5.918;2022-07-05T15:42:16;355.00;;;333.82;;
22768;SDS011;13001;51.968;5.918;2022-07-05T15:44:45;358.20;;;336.90;;
22768;SDS011;13001;51.968;5.918;2022-07-05T15:47:12;374.80;;;352.07;;
22768;SDS011;13001;51.968;5.918;2022-07-05T15:49:41;375.13;;;352.87;;
22768;SDS011;13001;51.968;5.918;2022-07-05T15:52:09;370.77;;;348.67;;
22768;SDS011;13001;51.968;5.918;2022-07-05T15:54:36;378.12;;;355.85;;
22768;SDS011;13001;51.968;5.918;2022-07-05T15:57:03;362.30;;;341.25;;
22768;SDS011;13001;51.968;5.918;2022-07-05T15:59:31;383.05;;;360.30;;
22768;SDS011;13001;51.968;5.918;2022-07-05T16:01:58;382.00;;;359.12;;
22768;SDS011;13001;51.968;5.918;2022-07-05T16:04:25;374.52;;;352.15;;
22768;SDS011;13001;51.968;5.918;2022-07-05T16:06:57;378.43;;;355.73;;
22768;SDS011;13001;51.968;5.918;2022-07-05T16:09:24;360.30;;;338.77;;
22768;SDS011;13001;51.968;5.918;2022-07-05T16:11:53;353.48;;;332.45;;
22768;SDS011;13001;51.968;5.918;2022-07-05T16:14:20;348.40;;;327.65;;
22768;SDS011;13001;51.968;5.918;2022-07-05T16:16:48;331.47;;;311.75;;
22768;SDS011;13001;51.968;5.918;2022-07-05T16:19:15;341.38;;;321.18;;
22768;SDS011;13001;51.968;5.918;2022-07-05T16:21:44;349.30;;;328.32;;
22768;SDS011;13001;51.968;5.918;2022-07-05T16:24:13;329.27;;;309.57;;
22768;SDS011;13001;51.968;5.918;2022-07-05T16:26:40;309.70;;;291.73;;
22768;SDS011;13001;51.968;5.918;2022-07-05T16:29:08;317.55;;;298.80;;
22768;SDS011;13001;51.968;5.918;2022-07-05T16:31:36;309.10;;;291.27;;
22768;SDS011;13001;51.968;5.918;2022-07-05T16:34:03;321.65;;;302.80;;
22768;SDS011;13001;51.968;5.918;2022-07-05T16:36:30;338.40;;;319.18;;
22768;SDS011;13001;51.968;5.918;2022-07-05T16:38:59;341.10;;;321.73;;
22768;SDS011;13001;51.968;5.918;2022-07-05T16:41:28;351.00;;;331.10;;
22768;SDS011;13001;51.968;5.918;2022-07-05T16:43:56;345.05;;;325.05;;
22768;SDS011;13001;51.968;5.918;2022-07-05T16:46:23;359.65;;;338.98;;
22768;SDS011;13001;51.968;5.918;2022-07-05T16:48:52;347.95;;;327.80;;
22768;SDS011;13001;51.968;5.918;2022-07-05T16:51:20;343.55;;;323.95;;
22768;SDS011;13001;51.968;5.918;2022-07-05T16:53:48;349.98;;;330.10;;
22768;SDS011;13001;51.968;5.918;2022-07-05T16:56:15;340.68;;;321.73;;
22768;SDS011;13001;51.968;5.918;2022-07-05T16:58:54;341.17;;;322.03;;
22768;SDS011;13001;51.968;5.918;2022-07-05T17:01:19;418.27;;;393.07;;
22768;SDS011;13001;51.968;5.918;2022-07-05T17:03:49;468.25;;;439.10;;
22768;SDS011;13001;51.968;5.918;2022-07-05T17:06:20;521.08;;;488.30;;
22768;SDS011;13001;51.968;5.918;2022-07-05T17:08:48;560.55;;;524.75;;
22768;SDS011;13001;51.968;5.918;2022-07-05T17:11:16;586.05;;;548.88;;
22768;SDS011;13001;51.968;5.918;2022-07-05T17:13:44;610.70;;;571.37;;
22768;SDS011;13001;51.968;5.918;2022-07-05T17:16:12;621.48;;;581.30;;
22768;SDS011;13001;51.968;5.918;2022-07-05T17:18:45;648.78;;;605.77;;
22768;SDS011;13001;51.968;5.918;2022-07-05T17:21:12;655.48;;;611.33;;
22768;SDS011;13001;51.968;5.918;2022-07-05T17:23:40;670.70;;;624.67;;
22768;SDS011;13001;51.968;5.918;2022-07-05T17:26:10;681.55;;;634.33;;
22768;SDS011;13001;51.968;5.918;2022-07-05T17:28:38;709.93;;;659.37;;
22768;SDS011;13001;51.968;5.918;2022-07-05T17:31:06;706.53;;;656.43;;
22768;SDS011;13001;51.968;5.918;2022-07-05T17:33:34;718.67;;;666.67;;
22768;SDS011;13001;51.968;5.918;2022-07-05T17:36:02;709.25;;;658.10;;
22768;SDS011;13001;51.968;5.918;2022-07-05T17:38:29;733.02;;;680.35;;
22768;SDS011;13001;51.968;5.918;2022-07-05T17:40:57;739.40;;;685.53;;
22768;SDS011;13001;51.968;5.918;2022-07-05T17:43:24;747.50;;;692.07;;
22768;SDS011;13001;51.968;5.918;2022-07-05T17:45:51;750.00;;;695.03;;
22768;SDS011;13001;51.968;5.918;2022-07-05T17:48:19;754.02;;;698.47;;
22768;SDS011;13001;51.968;5.918;2022-07-05T17:50:47;738.95;;;684.50;;
22768;SDS011;13001;51.968;5.918;2022-07-05T17:53:14;753.50;;;698.10;;
22768;SDS011;13001;51.968;5.918;2022-07-05T17:55:42;755.90;;;700.15;;
22768;SDS011;13001;51.968;5.918;2022-07-05T17:58:09;735.80;;;681.87;;
22768;SDS011;13001;51.968;5.918;2022-07-05T18:00:36;739.67;;;686.30;;
22768;SDS011;13001;51.968;5.918;2022-07-05T18:03:04;726.85;;;674.12;;
22768;SDS011;13001;51.968;5.918;2022-07-05T18:05:31;749.45;;;693.55;;
22768;SDS011;13001;51.968;5.918;2022-07-05T18:07:58;745.30;;;690.05;;
22768;SDS011;13001;51.968;5.918;2022-07-05T18:10:26;754.50;;;698.73;;
22768;SDS011;13001;51.968;5.918;2022-07-05T18:12:56;735.90;;;682.50;;
22768;SDS011;13001;51.968;5.918;2022-07-05T18:15:23;754.07;;;698.07;;
22768;SDS011;13001;51.968;5.918;2022-07-05T18:17:50;751.60;;;697.23;;
22768;SDS011;13001;51.968;5.918;2022-07-05T18:20:19;749.58;;;694.30;;
22768;SDS011;13001;51.968;5.918;2022-07-05T18:22:46;729.38;;;676.02;;
22768;SDS011;13001;51.968;5.918;2022-07-05T18:25:14;732.08;;;678.85;;
22768;SDS011;13001;51.968;5.918;2022-07-05T18:27:41;734.33;;;680.25;;
22768;SDS011;13001;51.968;5.918;2022-07-05T18:30:08;732.80;;;678.95;;
22768;SDS011;13001;51.968;5.918;2022-07-05T18:32:36;728.80;;;675.73;;
22768;SDS011;13001;51.968;5.918;2022-07-05T18:35:05;738.55;;;684.80;;
22768;SDS011;13001;51.968;5.918;2022-07-05T18:37:33;740.62;;;685.67;;
22768;SDS011;13001;51.968;5.918;2022-07-05T18:40:01;761.43;;;705.03;;
22768;SDS011;13001;51.968;5.918;2022-07-05T18:42:29;751.77;;;695.62;;
22768;SDS011;13001;51.968;5.918;2022-07-05T18:44:59;759.63;;;703.37;;
22768;SDS011;13001;51.968;5.918;2022-07-05T18:47:25;1156.80;;;999.90;;
22768;SDS011;13001;51.968;5.918;2022-07-05T18:49:53;951.42;;;879.67;;
22768;SDS011;13001;51.968;5.918;2022-07-05T18:52:20;971.87;;;898.83;;
22768;SDS011;13001;51.968;5.918;2022-07-05T18:54:47;983.42;;;908.47;;
22768;SDS011;13001;51.968;5.918;2022-07-05T18:57:14;943.07;;;875.10;;
22768;SDS011;13001;51.968;5.918;2022-07-05T18:59:42;963.87;;;892.37;;
22768;SDS011;13001;51.968;5.918;2022-07-05T19:02:11;1036.68;;;948.65;;
22768;SDS011;13001;51.968;5.918;2022-07-05T19:04:40;947.27;;;877.40;;
22768;SDS011;13001;51.968;5.918;2022-07-05T19:07:08;946.87;;;876.00;;
22768;SDS011;13001;51.968;5.918;2022-07-05T19:09:53;1051.65;;;963.48;;
22768;SDS011;13001;51.968;5.918;2022-07-05T19:12:39;945.70;;;875.40;;
22768;SDS011;13001;51.968;5.918;2022-07-05T19:15:24;953.73;;;881.55;;
22768;SDS011;13001;51.968;5.918;2022-07-05T19:17:52;944.60;;;873.15;;
22768;SDS011;13001;51.968;5.918;2022-07-05T19:20:19;957.32;;;886.00;;
22768;SDS011;13001;51.968;5.918;2022-07-05T19:22:46;952.60;;;882.47;;
22768;SDS011;13001;51.968;5.918;2022-07-05T19:25:13;970.70;;;897.93;;
22768;SDS011;13001;51.968;5.918;2022-07-05T19:27:41;971.42;;;899.90;;
22768;SDS011;13001;51.968;5.918;2022-07-05T19:30:08;979.50;;;907.08;;
22768;SDS011;13001;51.968;5.918;2022-07-05T19:32:35;987.55;;;913.52;;
22768;SDS011;13001;51.968;5.918;2022-07-05T19:35:03;988.90;;;915.12;;
22768;SDS011;13001;51.968;5.918;2022-07-05T19:37:35;978.97;;;905.80;;
22768;SDS011;13001;51.968;5.918;2022-07-05T19:40:03;992.00;;;918.20;;
22768;SDS011;13001;51.968;5.918;2022-07-05T19:42:31;989.83;;;916.60;;
22768;SDS011;13001;51.968;5.918;2022-07-05T19:44:58;985.05;;;911.97;;
22768;SDS011;13001;51.968;5.918;2022-07-05T19:47:26;1025.93;;;942.22;;